KOCF/OCF METAR and TAF weather

Enter ICAO airport designator
Station Type Date Time Source
KOCF METAR 2022/12/04 03:51 UTC NOAA

KOCF 040351Z AUTO 34003KT 10SM CLR 16/14 A3030 RMK AO2 SLP259 T01560139 PNO $


Station Type Date Time Source
KOCF Decoded METAR 2022/12/04 03:51 UTC NOAA

Ocala, Ocala International Airport-Jim Taylor Field, FL, United States (KOCF) 29-10N 082-13W
Dec 03, 2022 - 10:51 PM EST / 2022.12.04 0351 UTC
Wind: from the NNW (340 degrees) at 3 MPH (3 KT):0
Visibility: 10 mile(s):0
Sky conditions: clear
Temperature: 60.1 F (15.6 C)
Dew Point: 57.0 F (13.9 C)
Relative Humidity: 89%
Pressure (altimeter): 30.3 in. Hg (1026 hPa)
ob: KOCF 040351Z AUTO 34003KT 10SM CLR 16/14 A3030 RMK AO2 SLP259 T01560139 PNO
cycle: 4

Station Type Date Time Source
KOCF TAF UTC NOAA

Error!

Example: see airport list